sensor_id;sensor_type;location;lat;lon;timestamp;pressure;altitude;pressure_sealevel;temperature;humidity
3668;BME280;24099;47.102;15.440;2022-07-09T00:01:59;97918.25;;;11.87;100.00
3668;BME280;24099;47.102;15.440;2022-07-09T00:04:27;97910.00;;;11.90;100.00
3668;BME280;24099;47.102;15.440;2022-07-09T00:06:59;97911.25;;;12.02;100.00
3668;BME280;24099;47.102;15.440;2022-07-09T00:09:26;97912.53;;;11.75;100.00
3668;BME280;24099;47.102;15.440;2022-07-09T00:11:53;97917.94;;;11.90;100.00
3668;BME280;24099;47.102;15.440;2022-07-09T00:14:23;97912.63;;;11.98;100.00
3668;BME280;24099;47.102;15.440;2022-07-09T00:16:51;97916.44;;;11.87;100.00
3668;BME280;24099;47.102;15.440;2022-07-09T00:19:19;97924.69;;;11.84;100.00
3668;BME280;24099;47.102;15.440;2022-07-09T00:21:47;97913.22;;;11.77;100.00
3668;BME280;24099;47.102;15.440;2022-07-09T00:24:16;97915.25;;;11.51;100.00
3668;BME280;24099;47.102;15.440;2022-07-09T00:26:45;97907.31;;;11.59;100.00
3668;BME280;24099;47.102;15.440;2022-07-09T00:29:13;97897.53;;;11.76;100.00
3668;BME280;24099;47.102;15.440;2022-07-09T00:31:40;97901.84;;;11.60;100.00
3668;BME280;24099;47.102;15.440;2022-07-09T00:34:08;97902.84;;;11.59;100.00
3668;BME280;24099;47.102;15.440;2022-07-09T00:36:35;97890.59;;;11.83;100.00
3668;BME280;24099;47.102;15.440;2022-07-09T00:39:03;97895.75;;;11.60;100.00
3668;BME280;24099;47.102;15.440;2022-07-09T00:41:32;97895.94;;;11.58;100.00
3668;BME280;24099;47.102;15.440;2022-07-09T00:44:00;97895.22;;;11.72;100.00
3668;BME280;24099;47.102;15.440;2022-07-09T00:46:28;97887.34;;;11.64;100.00
3668;BME280;24099;47.102;15.440;2022-07-09T00:48:55;97890.19;;;11.47;100.00
3668;BME280;24099;47.102;15.440;2022-07-09T00:51:23;97888.41;;;11.39;100.00
3668;BME280;24099;47.102;15.440;2022-07-09T00:53:52;97888.75;;;11.36;100.00
3668;BME280;24099;47.102;15.440;2022-07-09T00:56:20;97890.84;;;11.57;100.00
3668;BME280;24099;47.102;15.440;2022-07-09T00:58:50;97888.16;;;11.65;100.00
3668;BME280;24099;47.102;15.440;2022-07-09T01:01:18;97888.22;;;11.40;100.00
3668;BME280;24099;47.102;15.440;2022-07-09T01:03:48;97895.41;;;11.63;100.00
3668;BME280;24099;47.102;15.440;2022-07-09T01:06:15;97889.81;;;11.11;100.00
3668;BME280;24099;47.102;15.440;2022-07-09T01:08:43;97880.41;;;11.08;100.00
3668;BME280;24099;47.102;15.440;2022-07-09T01:11:11;97884.28;;;11.45;100.00
3668;BME280;24099;47.102;15.440;2022-07-09T01:13:39;97874.28;;;11.24;100.00
3668;BME280;24099;47.102;15.440;2022-07-09T01:16:13;97881.19;;;11.25;100.00
3668;BME280;24099;47.102;15.440;2022-07-09T01:18:45;97876.56;;;11.35;100.00
3668;BME280;24099;47.102;15.440;2022-07-09T01:21:17;97882.56;;;11.04;100.00
3668;BME280;24099;47.102;15.440;2022-07-09T01:23:45;97883.38;;;11.05;100.00
3668;BME280;24099;47.102;15.440;2022-07-09T01:26:13;97888.81;;;11.03;100.00
3668;BME280;24099;47.102;15.440;2022-07-09T01:28:40;97877.59;;;11.18;100.00
3668;BME280;24099;47.102;15.440;2022-07-09T01:31:10;97887.72;;;11.45;100.00
3668;BME280;24099;47.102;15.440;2022-07-09T01:33:39;97882.03;;;11.25;100.00
3668;BME280;24099;47.102;15.440;2022-07-09T01:36:07;97876.91;;;11.24;100.00
3668;BME280;24099;47.102;15.440;2022-07-09T01:38:38;97865.22;;;11.26;100.00
3668;BME280;24099;47.102;15.440;2022-07-09T01:41:10;97867.19;;;11.32;100.00
3668;BME280;24099;47.102;15.440;2022-07-09T01:43:37;97863.66;;;10.93;100.00
3668;BME280;24099;47.102;15.440;2022-07-09T01:46:08;97858.19;;;11.19;100.00
3668;BME280;24099;47.102;15.440;2022-07-09T01:48:36;97849.97;;;11.05;100.00
3668;BME280;24099;47.102;15.440;2022-07-09T01:51:05;97861.50;;;10.96;100.00
3668;BME280;24099;47.102;15.440;2022-07-09T01:53:34;97855.06;;;11.07;100.00
3668;BME280;24099;47.102;15.440;2022-07-09T01:56:09;97838.75;;;11.12;100.00
3668;BME280;24099;47.102;15.440;2022-07-09T01:58:37;97849.53;;;10.78;100.00
3668;BME280;24099;47.102;15.440;2022-07-09T02:01:05;97845.88;;;10.95;100.00
3668;BME280;24099;47.102;15.440;2022-07-09T02:03:32;97836.91;;;11.20;100.00
3668;BME280;24099;47.102;15.440;2022-07-09T02:06:00;97850.66;;;10.91;100.00
3668;BME280;24099;47.102;15.440;2022-07-09T02:08:30;97851.09;;;11.03;100.00
3668;BME280;24099;47.102;15.440;2022-07-09T02:11:00;97840.59;;;10.95;100.00
3668;BME280;24099;47.102;15.440;2022-07-09T02:13:30;97838.63;;;10.89;100.00
3668;BME280;24099;47.102;15.440;2022-07-09T02:15:57;97826.41;;;11.04;100.00
3668;BME280;24099;47.102;15.440;2022-07-09T02:18:29;97841.88;;;11.07;100.00
3668;BME280;24099;47.102;15.440;2022-07-09T02:20:58;97838.47;;;10.82;100.00
3668;BME280;24099;47.102;15.440;2022-07-09T02:23:26;97834.47;;;11.11;100.00
3668;BME280;24099;47.102;15.440;2022-07-09T02:25:53;97840.91;;;11.00;100.00
3668;BME280;24099;47.102;15.440;2022-07-09T02:28:21;97847.66;;;11.02;100.00
3668;BME280;24099;47.102;15.440;2022-07-09T02:30:53;97845.78;;;11.19;100.00
3668;BME280;24099;47.102;15.440;2022-07-09T02:33:21;97859.56;;;10.74;100.00
3668;BME280;24099;47.102;15.440;2022-07-09T02:35:48;97848.53;;;10.79;100.00
3668;BME280;24099;47.102;15.440;2022-07-09T02:38:16;97851.31;;;10.85;100.00
3668;BME280;24099;47.102;15.440;2022-07-09T02:40:45;97850.34;;;10.78;100.00
3668;BME280;24099;47.102;15.440;2022-07-09T02:43:12;97854.78;;;10.78;100.00
3668;BME280;24099;47.102;15.440;2022-07-09T02:45:39;97847.38;;;10.73;100.00
3668;BME280;24099;47.102;15.440;2022-07-09T02:48:08;97846.38;;;10.82;100.00
3668;BME280;24099;47.102;15.440;2022-07-09T02:50:36;97845.88;;;10.87;100.00
3668;BME280;24099;47.102;15.440;2022-07-09T02:53:03;97845.72;;;10.96;100.00
3668;BME280;24099;47.102;15.440;2022-07-09T02:55:31;97850.13;;;11.04;100.00
3668;BME280;24099;47.102;15.440;2022-07-09T02:57:58;97844.69;;;11.05;100.00
3668;BME280;24099;47.102;15.440;2022-07-09T03:00:26;97844.44;;;10.76;100.00
3668;BME280;24099;47.102;15.440;2022-07-09T03:02:53;97851.63;;;10.90;100.00
3668;BME280;24099;47.102;15.440;2022-07-09T03:05:22;97844.41;;;10.92;100.00
3668;BME280;24099;47.102;15.440;2022-07-09T03:07:49;97852.97;;;10.62;100.00
3668;BME280;24099;47.102;15.440;2022-07-09T03:10:17;97840.44;;;10.80;100.00
3668;BME280;24099;47.102;15.440;2022-07-09T03:12:45;97836.69;;;10.42;100.00
3668;BME280;24099;47.102;15.440;2022-07-09T03:15:12;97844.75;;;10.41;100.00
3668;BME280;24099;47.102;15.440;2022-07-09T03:17:41;97849.03;;;10.66;100.00
3668;BME280;24099;47.102;15.440;2022-07-09T03:20:10;97843.94;;;10.73;100.00
3668;BME280;24099;47.102;15.440;2022-07-09T03:22:40;97840.81;;;10.69;100.00
3668;BME280;24099;47.102;15.440;2022-07-09T03:25:09;97849.34;;;10.63;100.00
3668;BME280;24099;47.102;15.440;2022-07-09T03:27:37;97842.13;;;10.57;100.00
3668;BME280;24099;47.102;15.440;2022-07-09T03:30:06;97846.06;;;10.61;100.00
3668;BME280;24099;47.102;15.440;2022-07-09T03:32:34;97845.56;;;10.65;100.00
3668;BME280;24099;47.102;15.440;2022-07-09T03:35:02;97842.94;;;10.49;100.00
3668;BME280;24099;47.102;15.440;2022-07-09T03:37:33;97844.94;;;10.55;100.00
3668;BME280;24099;47.102;15.440;2022-07-09T03:40:06;97839.50;;;10.57;100.00
3668;BME280;24099;47.102;15.440;2022-07-09T03:42:34;97835.22;;;10.72;100.00
3668;BME280;24099;47.102;15.440;2022-07-09T03:45:03;97838.16;;;10.61;100.00
3668;BME280;24099;47.102;15.440;2022-07-09T03:47:31;97829.78;;;10.74;100.00
3668;BME280;24099;47.102;15.440;2022-07-09T03:49:58;97832.53;;;10.80;100.00
3668;BME280;24099;47.102;15.440;2022-07-09T03:52:27;97839.16;;;10.76;100.00
3668;BME280;24099;47.102;15.440;2022-07-09T03:54:56;97839.81;;;10.46;100.00
3668;BME280;24099;47.102;15.440;2022-07-09T03:57:26;97837.97;;;10.87;100.00
3668;BME280;24099;47.102;15.440;2022-07-09T03:59:54;97833.53;;;10.87;100.00
3668;BME280;24099;47.102;15.440;2022-07-09T04:02:22;97828.47;;;10.78;100.00
3668;BME280;24099;47.102;15.440;2022-07-09T04:04:50;97828.94;;;10.65;100.00
3668;BME280;24099;47.102;15.440;2022-07-09T04:07:18;97830.59;;;10.74;100.00
3668;BME280;24099;47.102;15.440;2022-07-09T04:09:47;97834.34;;;10.96;100.00
3668;BME280;24099;47.102;15.440;2022-07-09T04:12:14;97834.56;;;10.70;100.00
3668;BME280;24099;47.102;15.440;2022-07-09T04:14:44;97843.41;;;10.85;100.00
3668;BME280;24099;47.102;15.440;2022-07-09T04:17:13;97831.88;;;10.86;100.00
3668;BME280;24099;47.102;15.440;2022-07-09T04:19:40;97836.47;;;11.00;100.00
3668;BME280;24099;47.102;15.440;2022-07-09T04:22:08;97833.31;;;11.05;100.00
3668;BME280;24099;47.102;15.440;2022-07-09T04:24:35;97834.69;;;10.85;100.00
3668;BME280;24099;47.102;15.440;2022-07-09T04:27:04;97832.22;;;10.91;100.00
3668;BME280;24099;47.102;15.440;2022-07-09T04:29:31;97836.16;;;10.95;100.00
3668;BME280;24099;47.102;15.440;2022-07-09T04:32:00;97837.81;;;10.96;100.00
3668;BME280;24099;47.102;15.440;2022-07-09T04:34:28;97841.94;;;10.91;100.00
3668;BME280;24099;47.102;15.440;2022-07-09T04:36:57;97837.66;;;10.98;100.00
3668;BME280;24099;47.102;15.440;2022-07-09T04:39:26;97830.19;;;11.10;100.00
3668;BME280;24099;47.102;15.440;2022-07-09T04:41:53;97837.22;;;11.25;100.00
3668;BME280;24099;47.102;15.440;2022-07-09T04:44:21;97820.56;;;11.33;100.00
3668;BME280;24099;47.102;15.440;2022-07-09T04:46:48;97824.19;;;11.32;100.00
3668;BME280;24099;47.102;15.440;2022-07-09T04:49:17;97820.41;;;11.34;100.00
3668;BME280;24099;47.102;15.440;2022-07-09T04:51:45;97817.72;;;11.43;100.00
3668;BME280;24099;47.102;15.440;2022-07-09T04:54:17;97830.06;;;11.42;100.00
3668;BME280;24099;47.102;15.440;2022-07-09T04:56:45;97824.16;;;11.40;100.00
3668;BME280;24099;47.102;15.440;2022-07-09T04:59:14;97829.31;;;11.64;100.00
3668;BME280;24099;47.102;15.440;2022-07-09T05:01:42;97828.00;;;11.77;100.00
3668;BME280;24099;47.102;15.440;2022-07-09T05:04:10;97825.94;;;11.87;100.00
3668;BME280;24099;47.102;15.440;2022-07-09T05:06:40;97829.94;;;12.05;100.00
3668;BME280;24099;47.102;15.440;2022-07-09T05:09:08;97827.09;;;12.15;100.00
3668;BME280;24099;47.102;15.440;2022-07-09T05:11:35;97826.38;;;12.21;100.00
3668;BME280;24099;47.102;15.440;2022-07-09T05:14:04;97825.84;;;12.26;100.00
3668;BME280;24099;47.102;15.440;2022-07-09T05:16:34;97826.84;;;12.25;100.00
3668;BME280;24099;47.102;15.440;2022-07-09T05:19:02;97827.38;;;12.43;100.00
3668;BME280;24099;47.102;15.440;2022-07-09T05:21:29;97823.91;;;12.42;100.00
3668;BME280;24099;47.102;15.440;2022-07-09T05:23:58;97828.97;;;12.67;100.00
3668;BME280;24099;47.102;15.440;2022-07-09T05:26:27;97835.25;;;12.66;100.00
3668;BME280;24099;47.102;15.440;2022-07-09T05:28:55;97818.63;;;12.80;100.00
3668;BME280;24099;47.102;15.440;2022-07-09T05:31:23;97824.31;;;12.92;100.00
3668;BME280;24099;47.102;15.440;2022-07-09T05:33:50;97826.94;;;12.92;100.00
3668;BME280;24099;47.102;15.440;2022-07-09T05:36:18;97827.06;;;13.13;100.00
3668;BME280;24099;47.102;15.440;2022-07-09T05:38:45;97814.03;;;13.11;100.00
3668;BME280;24099;47.102;15.440;2022-07-09T05:41:15;97817.03;;;13.23;100.00
3668;BME280;24099;47.102;15.440;2022-07-09T05:43:43;97805.47;;;13.24;100.00
3668;BME280;24099;47.102;15.440;2022-07-09T05:46:11;97813.13;;;13.85;100.00
3668;BME280;24099;47.102;15.440;2022-07-09T05:48:39;97816.47;;;13.72;100.00
3668;BME280;24099;47.102;15.440;2022-07-09T05:51:07;97810.53;;;13.70;100.00
3668;BME280;24099;47.102;15.440;2022-07-09T05:53:35;97808.81;;;13.98;100.00
3668;BME280;24099;47.102;15.440;2022-07-09T05:56:03;97811.38;;;13.92;100.00
3668;BME280;24099;47.102;15.440;2022-07-09T05:58:34;97802.50;;;13.99;100.00
3668;BME280;24099;47.102;15.440;2022-07-09T06:01:04;97804.41;;;14.05;100.00
3668;BME280;24099;47.102;15.440;2022-07-09T06:03:33;97811.78;;;14.31;100.00
3668;BME280;24099;47.102;15.440;2022-07-09T06:06:02;97803.91;;;14.38;100.00
3668;BME280;24099;47.102;15.440;2022-07-09T06:08:29;97804.75;;;14.38;100.00
3668;BME280;24099;47.102;15.440;2022-07-09T06:10:59;97811.13;;;14.44;100.00
3668;BME280;24099;47.102;15.440;2022-07-09T06:13:27;97809.19;;;14.59;100.00
3668;BME280;24099;47.102;15.440;2022-07-09T06:15:58;97805.75;;;14.87;100.00
3668;BME280;24099;47.102;15.440;2022-07-09T06:18:26;97800.88;;;14.90;100.00
3668;BME280;24099;47.102;15.440;2022-07-09T06:20:53;97795.34;;;15.20;100.00
3668;BME280;24099;47.102;15.440;2022-07-09T06:23:21;97791.53;;;15.29;100.00
3668;BME280;24099;47.102;15.440;2022-07-09T06:25:50;97792.50;;;15.56;100.00
3668;BME280;24099;47.102;15.440;2022-07-09T06:28:17;97793.97;;;15.58;100.00
3668;BME280;24099;47.102;15.440;2022-07-09T06:30:46;97786.59;;;15.60;100.00
3668;BME280;24099;47.102;15.440;2022-07-09T06:33:15;97792.81;;;15.87;100.00
3668;BME280;24099;47.102;15.440;2022-07-09T06:35:44;97800.25;;;16.31;100.00
3668;BME280;24099;47.102;15.440;2022-07-09T06:38:13;97793.16;;;16.71;100.00
3668;BME280;24099;47.102;15.440;2022-07-09T06:40:40;97794.31;;;16.16;100.00
3668;BME280;24099;47.102;15.440;2022-07-09T06:43:08;97792.28;;;16.44;100.00
3668;BME280;24099;47.102;15.440;2022-07-09T06:45:44;97788.00;;;16.43;100.00
3668;BME280;24099;47.102;15.440;2022-07-09T06:48:14;97787.59;;;16.46;100.00
3668;BME280;24099;47.102;15.440;2022-07-09T06:50:42;97785.59;;;16.68;100.00
3668;BME280;24099;47.102;15.440;2022-07-09T06:53:11;97783.94;;;16.87;100.00
3668;BME280;24099;47.102;15.440;2022-07-09T06:55:39;97786.31;;;17.21;100.00
3668;BME280;24099;47.102;15.440;2022-07-09T06:58:06;97779.41;;;17.72;100.00
3668;BME280;24099;47.102;15.440;2022-07-09T07:00:33;97774.53;;;18.00;100.00
3668;BME280;24099;47.102;15.440;2022-07-09T07:03:02;97774.19;;;17.90;100.00
3668;BME280;24099;47.102;15.440;2022-07-09T07:05:31;97779.16;;;18.18;100.00
3668;BME280;24099;47.102;15.440;2022-07-09T07:07:59;97769.97;;;18.14;100.00
3668;BME280;24099;47.102;15.440;2022-07-09T07:10:26;97773.03;;;18.42;100.00
3668;BME280;24099;47.102;15.440;2022-07-09T07:12:54;97767.31;;;18.39;100.00
3668;BME280;24099;47.102;15.440;2022-07-09T07:15:23;97772.38;;;18.78;100.00
3668;BME280;24099;47.102;15.440;2022-07-09T07:17:52;97768.78;;;18.66;100.00
3668;BME280;24099;47.102;15.440;2022-07-09T07:20:19;97762.66;;;18.84;100.00
3668;BME280;24099;47.102;15.440;2022-07-09T07:22:53;97767.44;;;19.18;100.00
3668;BME280;24099;47.102;15.440;2022-07-09T07:25:21;97773.34;;;19.02;100.00
3668;BME280;24099;47.102;15.440;2022-07-09T07:27:48;97771.38;;;18.73;100.00
3668;BME280;24099;47.102;15.440;2022-07-09T07:30:16;97771.75;;;18.51;100.00
3668;BME280;24099;47.102;15.440;2022-07-09T07:32:44;97773.19;;;18.47;100.00
3668;BME280;24099;47.102;15.440;2022-07-09T07:35:12;97765.28;;;18.90;100.00
3668;BME280;24099;47.102;15.440;2022-07-09T07:37:44;97767.06;;;18.97;100.00
3668;BME280;24099;47.102;15.440;2022-07-09T07:40:14;97764.84;;;19.12;100.00
3668;BME280;24099;47.102;15.440;2022-07-09T07:42:41;97757.00;;;19.35;100.00
3668;BME280;24099;47.102;15.440;2022-07-09T07:45:10;97756.00;;;19.48;100.00
3668;BME280;24099;47.102;15.440;2022-07-09T07:47:38;97770.41;;;19.65;95.16
3668;BME280;24099;47.102;15.440;2022-07-09T07:50:07;97770.63;;;19.64;89.03
3668;BME280;24099;47.102;15.440;2022-07-09T07:52:36;97766.88;;;19.53;87.01
3668;BME280;24099;47.102;15.440;2022-07-09T07:55:04;97769.06;;;19.74;87.26
3668;BME280;24099;47.102;15.440;2022-07-09T07:57:33;97770.75;;;19.87;87.46
3668;BME280;24099;47.102;15.440;2022-07-09T08:00:00;97764.44;;;19.51;99.38
3668;BME280;24099;47.102;15.440;2022-07-09T08:02:38;97760.75;;;19.46;95.83
3668;BME280;24099;47.102;15.440;2022-07-09T08:05:08;97756.91;;;19.78;84.85
3668;BME280;24099;47.102;15.440;2022-07-09T08:07:35;97759.03;;;19.58;88.50
3668;BME280;24099;47.102;15.440;2022-07-09T08:10:03;97763.53;;;19.57;95.34
3668;BME280;24099;47.102;15.440;2022-07-09T08:12:35;97758.09;;;19.64;92.03
3668;BME280;24099;47.102;15.440;2022-07-09T08:15:05;97758.94;;;19.94;97.08
3668;BME280;24099;47.102;15.440;2022-07-09T08:17:33;97757.81;;;20.44;91.97
3668;BME280;24099;47.102;15.440;2022-07-09T08:20:00;97760.06;;;20.28;82.63
3668;BME280;24099;47.102;15.440;2022-07-09T08:22:27;97761.66;;;20.48;84.26
3668;BME280;24099;47.102;15.440;2022-07-09T08:24:54;97755.13;;;20.44;81.41
3668;BME280;24099;47.102;15.440;2022-07-09T08:27:23;97752.81;;;20.59;84.54
3668;BME280;24099;47.102;15.440;2022-07-09T08:29:53;97765.06;;;20.90;85.36
3668;BME280;24099;47.102;15.440;2022-07-09T08:32:21;97752.38;;;20.85;83.13
3668;BME280;24099;47.102;15.440;2022-07-09T08:34:48;97746.06;;;20.45;81.80
3668;BME280;24099;47.102;15.440;2022-07-09T08:37:16;97756.41;;;20.41;79.74
3668;BME280;24099;47.102;15.440;2022-07-09T08:39:43;97747.47;;;20.82;78.36
3668;BME280;24099;47.102;15.440;2022-07-09T08:42:10;97742.50;;;20.97;76.03
3668;BME280;24099;47.102;15.440;2022-07-09T08:44:39;97737.59;;;20.83;74.79
3668;BME280;24099;47.102;15.440;2022-07-09T08:47:10;97736.19;;;21.15;85.97
3668;BME280;24099;47.102;15.440;2022-07-09T08:49:39;97728.03;;;21.10;77.08
3668;BME280;24099;47.102;15.440;2022-07-09T08:52:10;97729.31;;;21.31;81.41
3668;BME280;24099;47.102;15.440;2022-07-09T08:54:38;97744.22;;;21.15;80.42
3668;BME280;24099;47.102;15.440;2022-07-09T08:57:06;97737.00;;;20.81;80.32
3668;BME280;24099;47.102;15.440;2022-07-09T08:59:34;97734.47;;;20.86;79.56
3668;BME280;24099;47.102;15.440;2022-07-09T09:02:04;97726.97;;;21.35;70.14
3668;BME280;24099;47.102;15.440;2022-07-09T09:04:33;97728.09;;;21.79;76.95
3668;BME280;24099;47.102;15.440;2022-07-09T09:07:20;97718.13;;;21.74;74.99
3668;BME280;24099;47.102;15.440;2022-07-09T09:09:49;97715.44;;;21.74;74.46
3668;BME280;24099;47.102;15.440;2022-07-09T09:12:27;97709.63;;;21.65;74.70
3668;BME280;24099;47.102;15.440;2022-07-09T09:14:56;97703.47;;;21.65;79.98
3668;BME280;24099;47.102;15.440;2022-07-09T09:17:23;97700.78;;;21.93;78.78
3668;BME280;24099;47.102;15.440;2022-07-09T09:19:56;97708.25;;;21.91;75.95
3668;BME280;24099;47.102;15.440;2022-07-09T09:22:24;97703.59;;;21.58;76.38
3668;BME280;24099;47.102;15.440;2022-07-09T09:24:51;97715.22;;;21.92;78.03
3668;BME280;24099;47.102;15.440;2022-07-09T09:27:28;97700.63;;;22.00;79.67
3668;BME280;24099;47.102;15.440;2022-07-09T09:29:58;97702.13;;;22.08;72.36
3668;BME280;24099;47.102;15.440;2022-07-09T09:32:26;97697.00;;;21.78;74.38
3668;BME280;24099;47.102;15.440;2022-07-09T09:34:55;97694.25;;;21.89;76.12
3668;BME280;24099;47.102;15.440;2022-07-09T09:37:38;97702.78;;;22.15;77.96
3668;BME280;24099;47.102;15.440;2022-07-09T09:40:13;97703.81;;;21.69;75.23
3668;BME280;24099;47.102;15.440;2022-07-09T09:42:41;97705.56;;;21.63;76.21
3668;BME280;24099;47.102;15.440;2022-07-09T09:45:10;97709.84;;;21.76;80.42
3668;BME280;24099;47.102;15.440;2022-07-09T09:47:38;97706.00;;;21.72;76.76
3668;BME280;24099;47.102;15.440;2022-07-09T09:50:08;97694.06;;;22.08;81.50
3668;BME280;24099;47.102;15.440;2022-07-09T09:52:43;97685.53;;;22.11;73.99
3668;BME280;24099;47.102;15.440;2022-07-09T09:55:16;97691.72;;;22.11;76.57
3668;BME280;24099;47.102;15.440;2022-07-09T09:57:44;97700.34;;;22.30;71.13
3668;BME280;24099;47.102;15.440;2022-07-09T10:00:14;97685.34;;;22.67;69.89
3668;BME280;24099;47.102;15.440;2022-07-09T10:02:47;97678.06;;;22.46;71.56
3668;BME280;24099;47.102;15.440;2022-07-09T10:05:18;97682.69;;;22.00;70.36
3668;BME280;24099;47.102;15.440;2022-07-09T10:07:46;97693.44;;;21.89;72.01
3668;BME280;24099;47.102;15.440;2022-07-09T10:10:20;97678.22;;;22.23;67.90
3668;BME280;24099;47.102;15.440;2022-07-09T10:12:49;97682.09;;;22.82;71.65
3668;BME280;24099;47.102;15.440;2022-07-09T10:15:23;97671.22;;;23.11;66.78
3668;BME280;24099;47.102;15.440;2022-07-09T10:17:52;97671.84;;;22.79;66.33
3668;BME280;24099;47.102;15.440;2022-07-09T10:20:32;97678.84;;;22.80;65.52
3668;BME280;24099;47.102;15.440;2022-07-09T10:23:00;97681.75;;;22.95;64.99
3668;BME280;24099;47.102;15.440;2022-07-09T10:25:31;97673.44;;;23.41;65.83
3668;BME280;24099;47.102;15.440;2022-07-09T10:28:00;97664.31;;;23.42;64.29
3668;BME280;24099;47.102;15.440;2022-07-09T10:30:31;97671.94;;;23.72;63.83
3668;BME280;24099;47.102;15.440;2022-07-09T10:33:05;97665.69;;;23.66;63.48
3668;BME280;24099;47.102;15.440;2022-07-09T10:35:44;97659.91;;;23.52;62.88
3668;BME280;24099;47.102;15.440;2022-07-09T10:38:14;97652.50;;;23.64;65.82
3668;BME280;24099;47.102;15.440;2022-07-09T10:40:44;97663.94;;;23.82;64.52
3668;BME280;24099;47.102;15.440;2022-07-09T10:43:13;97649.69;;;23.81;62.62
3668;BME280;24099;47.102;15.440;2022-07-09T10:45:45;97655.13;;;23.86;63.19
3668;BME280;24099;47.102;15.440;2022-07-09T10:48:15;97664.06;;;23.43;63.23
3668;BME280;24099;47.102;15.440;2022-07-09T10:50:46;97657.88;;;22.99;64.23
3668;BME280;24099;47.102;15.440;2022-07-09T10:53:13;97661.28;;;23.11;64.96
3668;BME280;24099;47.102;15.440;2022-07-09T10:55:43;97654.22;;;23.27;66.84
3668;BME280;24099;47.102;15.440;2022-07-09T10:58:17;97659.97;;;23.57;62.02
3668;BME280;24099;47.102;15.440;2022-07-09T11:00:45;97652.34;;;23.76;59.85
3668;BME280;24099;47.102;15.440;2022-07-09T11:03:25;97649.38;;;24.04;59.29
3668;BME280;24099;47.102;15.440;2022-07-09T11:05:54;97635.66;;;24.38;61.48
3668;BME280;24099;47.102;15.440;2022-07-09T11:08:22;97629.75;;;24.36;60.50
3668;BME280;24099;47.102;15.440;2022-07-09T11:10:50;97651.50;;;23.49;60.07
3668;BME280;24099;47.102;15.440;2022-07-09T11:13:23;97645.44;;;23.58;58.39
3668;BME280;24099;47.102;15.440;2022-07-09T11:15:58;97652.63;;;23.75;59.38
3668;BME280;24099;47.102;15.440;2022-07-09T11:18:29;97652.72;;;24.17;61.00
3668;BME280;24099;47.102;15.440;2022-07-09T11:20:59;97651.19;;;24.26;58.68
3668;BME280;24099;47.102;15.440;2022-07-09T11:23:29;97640.81;;;23.81;60.41
3668;BME280;24099;47.102;15.440;2022-07-09T11:25:57;97643.28;;;24.19;64.12
3668;BME280;24099;47.102;15.440;2022-07-09T11:28:25;97627.34;;;23.76;67.06
3668;BME280;24099;47.102;15.440;2022-07-09T11:31:00;97633.69;;;23.64;59.88
3668;BME280;24099;47.102;15.440;2022-07-09T11:33:28;97633.88;;;23.09;62.01
3668;BME280;24099;47.102;15.440;2022-07-09T11:36:17;97631.50;;;23.13;64.08
3668;BME280;24099;47.102;15.440;2022-07-09T11:38:49;97628.59;;;22.76;59.84
3668;BME280;24099;47.102;15.440;2022-07-09T11:41:17;97612.56;;;23.51;58.87
3668;BME280;24099;47.102;15.440;2022-07-09T11:43:49;97614.56;;;24.62;61.41
3668;BME280;24099;47.102;15.440;2022-07-09T11:46:18;97634.00;;;24.00;58.09
3668;BME280;24099;47.102;15.440;2022-07-09T11:48:50;97620.53;;;23.95;58.43
3668;BME280;24099;47.102;15.440;2022-07-09T11:51:28;97609.84;;;24.37;57.61
3668;BME280;24099;47.102;15.440;2022-07-09T11:53:57;97605.56;;;24.09;58.50
3668;BME280;24099;47.102;15.440;2022-07-09T11:56:25;97594.59;;;25.05;61.02
3668;BME280;24099;47.102;15.440;2022-07-09T11:58:53;97597.63;;;25.39;58.47
3668;BME280;24099;47.102;15.440;2022-07-09T12:01:23;97599.94;;;25.00;59.17
3668;BME280;24099;47.102;15.440;2022-07-09T12:03:51;97598.91;;;25.06;55.94
3668;BME280;24099;47.102;15.440;2022-07-09T12:06:19;97604.66;;;23.98;55.33
3668;BME280;24099;47.102;15.440;2022-07-09T12:08:50;97601.59;;;23.85;55.50
3668;BME280;24099;47.102;15.440;2022-07-09T12:11:27;97588.66;;;24.51;60.54
3668;BME280;24099;47.102;15.440;2022-07-09T12:13:55;97598.31;;;24.10;58.18
3668;BME280;24099;47.102;15.440;2022-07-09T12:16:22;97606.59;;;23.71;56.93
3668;BME280;24099;47.102;15.440;2022-07-09T12:18:50;97592.72;;;24.16;62.25
3668;BME280;24099;47.102;15.440;2022-07-09T12:21:21;97579.16;;;24.90;59.31
3668;BME280;24099;47.102;15.440;2022-07-09T12:23:50;97567.69;;;25.20;57.45
3668;BME280;24099;47.102;15.440;2022-07-09T12:26:17;97570.94;;;25.22;61.40
3668;BME280;24099;47.102;15.440;2022-07-09T12:28:45;97576.59;;;24.21;54.95
3668;BME280;24099;47.102;15.440;2022-07-09T12:31:13;97581.06;;;24.05;55.69
3668;BME280;24099;47.102;15.440;2022-07-09T12:33:40;97578.81;;;24.24;58.42
3668;BME280;24099;47.102;15.440;2022-07-09T12:36:08;97569.72;;;24.88;61.72
3668;BME280;24099;47.102;15.440;2022-07-09T12:38:35;97562.84;;;25.17;62.29
3668;BME280;24099;47.102;15.440;2022-07-09T12:41:05;97558.50;;;24.49;55.56
3668;BME280;24099;47.102;15.440;2022-07-09T12:43:32;97559.81;;;25.03;56.72
3668;BME280;24099;47.102;15.440;2022-07-09T12:46:00;97554.25;;;25.46;57.64
3668;BME280;24099;47.102;15.440;2022-07-09T12:48:27;97550.81;;;25.65;56.89
3668;BME280;24099;47.102;15.440;2022-07-09T12:50:55;97537.06;;;25.87;55.24
3668;BME280;24099;47.102;15.440;2022-07-09T12:53:25;97539.72;;;26.02;56.12
3668;BME280;24099;47.102;15.440;2022-07-09T12:55:53;97543.47;;;25.46;57.51
3668;BME280;24099;47.102;15.440;2022-07-09T12:58:22;97553.59;;;24.93;53.99
3668;BME280;24099;47.102;15.440;2022-07-09T13:00:50;97544.13;;;24.85;56.16
3668;BME280;24099;47.102;15.440;2022-07-09T13:03:17;97548.25;;;25.03;51.13
3668;BME280;24099;47.102;15.440;2022-07-09T13:05:45;97534.84;;;25.33;53.52